createdAt,value
2017-11-11T00:06:14.635Z,1005.25
2017-11-11T00:16:14.586Z,1005.29
2017-11-11T00:26:14.694Z,1005.21
2017-11-11T00:36:14.622Z,1005.25
2017-11-11T00:46:14.729Z,1005.19
2017-11-11T00:56:15.015Z,1005.2
2017-11-11T01:06:14.707Z,1005.14
2017-11-11T01:16:14.662Z,1004.98
2017-11-11T01:26:14.672Z,1004.92
2017-11-11T01:36:14.750Z,1004.83
2017-11-11T01:46:14.690Z,1004.64
2017-11-11T01:56:14.765Z,1004.5
2017-11-11T02:06:14.734Z,1004.37
2017-11-11T02:16:14.691Z,1004.3
2017-11-11T02:26:14.778Z,1004.2
2017-11-11T02:36:14.712Z,1004.23
2017-11-11T02:46:14.769Z,1004.47
2017-11-11T02:56:14.731Z,1004.2
2017-11-11T03:06:14.799Z,1004.07
2017-11-11T03:16:14.753Z,1003.92
2017-11-11T03:26:14.830Z,1003.82
2017-11-11T03:36:14.811Z,1003.66
2017-11-11T03:46:14.839Z,1003.45
2017-11-11T03:56:15.142Z,1003.37
2017-11-11T04:06:14.872Z,1003.34
2017-11-11T04:16:14.826Z,1003.39
2017-11-11T04:26:14.793Z,1003.25
2017-11-11T04:36:14.845Z,1003.26
2017-11-11T04:46:14.797Z,1003.3
2017-11-11T04:56:14.871Z,1003.04
2017-11-11T05:06:14.843Z,1002.95
2017-11-11T05:16:14.917Z,1002.86
2017-11-11T05:26:14.858Z,1002.85
2017-11-11T05:36:14.912Z,1002.68
2017-11-11T05:46:14.875Z,1002.51
2017-11-11T05:56:14.951Z,1002.43
2017-11-11T06:06:14.900Z,1002.38
2017-11-11T06:16:14.976Z,1002.37
2017-11-11T06:26:15.131Z,1002.23
2017-11-11T06:36:14.887Z,1002.15
2017-11-11T06:46:14.945Z,1001.96
2017-11-11T06:56:14.902Z,1001.91
2017-11-11T07:06:14.990Z,1002.03
2017-11-11T07:16:14.936Z,1002.05
2017-11-11T07:26:15.012Z,1001.95
2017-11-11T07:36:14.952Z,1001.79
2017-11-11T07:46:15.015Z,1001.71
2017-11-11T07:56:14.984Z,1001.7
2017-11-11T08:06:15.046Z,1001.63
2017-11-11T08:16:14.993Z,1001.52
2017-11-11T08:26:14.945Z,1001.46
2017-11-11T08:36:15.037Z,1001.38
2017-11-11T08:46:15.001Z,1001.28
2017-11-11T08:56:15.025Z,1001.11
2017-11-11T09:06:15.085Z,1001.12
2017-11-11T09:16:15.035Z,1001.19
2017-11-11T09:26:15.137Z,1001.22
2017-11-11T09:36:15.071Z,1001.13
2017-11-11T09:46:15.040Z,1001.09
2017-11-11T09:56:15.045Z,1000.94
2017-11-11T10:06:15.046Z,1000.8
2017-11-11T10:16:15.045Z,1000.68
2017-11-11T10:26:15.183Z,1000.61
2017-11-11T10:36:15.160Z,1000.48
2017-11-11T10:46:15.111Z,1000.29
2017-11-11T10:56:15.160Z,1000.19
2017-11-11T11:06:15.132Z,999.99
2017-11-11T11:16:15.265Z,999.92
2017-11-11T11:26:15.184Z,999.76
2017-11-11T11:36:15.224Z,999.69
2017-11-11T11:46:16.219Z,999.81
2017-11-11T11:56:15.288Z,999.7
2017-11-11T12:06:15.212Z,999.61
2017-11-11T12:16:15.213Z,999.61
2017-11-11T12:26:15.267Z,999.44
2017-11-11T12:36:15.197Z,999.25
2017-11-11T12:46:15.260Z,999.11
2017-11-11T12:56:15.205Z,999
2017-11-11T13:06:15.211Z,998.87
2017-11-11T13:16:15.206Z,998.8
2017-11-11T13:26:15.212Z,998.71
2017-11-11T13:36:15.224Z,998.64
2017-11-11T13:46:15.217Z,998.72
2017-11-11T13:56:15.256Z,998.92
2017-11-11T14:06:15.248Z,998.82
2017-11-11T14:16:15.376Z,998.93
2017-11-11T14:26:15.269Z,998.96
2017-11-11T14:36:15.259Z,998.92
2017-11-11T14:46:15.276Z,998.83
2017-11-11T14:56:15.511Z,998.85
2017-11-11T15:06:15.520Z,998.87
2017-11-11T15:16:15.296Z,998.86
2017-11-11T15:26:15.314Z,998.77
2017-11-11T15:36:15.334Z,998.8
2017-11-11T15:46:15.334Z,998.77
2017-11-11T15:56:15.330Z,998.75
2017-11-11T16:06:15.359Z,998.83
2017-11-11T16:16:15.350Z,998.9
2017-11-11T16:26:15.394Z,998.99
2017-11-11T16:36:15.360Z,999.14
2017-11-11T16:46:15.527Z,999.17
2017-11-11T16:56:15.397Z,999.21
2017-11-11T17:06:15.389Z,999.41
2017-11-11T17:16:15.401Z,999.41
2017-11-11T17:26:15.401Z,999.42
2017-11-11T17:36:15.542Z,999.44
2017-11-11T17:46:15.549Z,999.54
2017-11-11T17:56:15.564Z,999.6
2017-11-11T18:06:15.426Z,999.77
2017-11-11T18:16:15.428Z,999.8
2017-11-11T18:26:15.458Z,999.9
2017-11-11T18:36:15.461Z,1000
2017-11-11T18:46:15.477Z,1000.07
2017-11-11T18:56:15.475Z,1000.06
2017-11-11T19:06:15.488Z,1000.24
2017-11-11T19:16:15.696Z,1000.33
2017-11-11T19:26:15.886Z,1000.46
2017-11-11T19:36:15.721Z,1000.59
2017-11-11T19:46:15.730Z,1000.66
2017-11-11T19:56:15.522Z,1000.64
2017-11-11T20:06:15.535Z,1000.61
2017-11-11T20:16:15.533Z,1000.69
2017-11-11T20:26:15.541Z,1000.66
2017-11-11T20:36:15.612Z,1000.76
2017-11-11T20:46:16.103Z,1000.91
2017-11-11T20:56:16.305Z,1000.92
2017-11-11T21:06:16.347Z,1000.97
2017-11-11T21:16:15.580Z,1001.04
2017-11-11T21:26:16.189Z,1001.01
2017-11-11T21:36:15.736Z,1001.16
2017-11-11T21:46:15.734Z,1001.14
2017-11-11T21:56:15.622Z,1001.19
2017-11-11T22:06:15.674Z,1001.16
2017-11-11T22:16:15.853Z,1001.13
2017-11-11T22:26:15.635Z,1001.09
2017-11-11T22:36:15.631Z,1001.04
2017-11-11T22:46:15.653Z,1001.09
2017-11-11T22:56:15.664Z,1001
2017-11-11T23:06:15.686Z,1000.94
2017-11-11T23:16:15.687Z,1000.93
2017-11-11T23:26:15.681Z,1000.89
2017-11-11T23:36:15.676Z,1000.78
2017-11-11T23:46:15.704Z,1000.74
2017-11-11T23:56:15.698Z,1000.71
